Time;durP1;ratioP1;P1;durP2;ratioP2;P2;SDS_P1;SDS_P2;PMS_P1;PMS_P2;Temp;Humidity;BMP_temperature;BMP_pressure;BME280_temperature;BME280_humidity;BME280_pressure;Samples;Min_cycle;Max_cycle;Signal;HPM_P1;HPM_P2
2022/10/20 00:00:03;;;;;;;10.55;7.55;;;;;;;;;;4954712;29;20039;-79
2022/10/20 00:02:29;;;;;;;12.18;7.03;;;;;;;;;;4954712;29;20100;-79
2022/10/20 00:04:55;;;;;;;13.10;7.15;;;;;;;;;;4954730;29;20054;-79
2022/10/20 00:07:22;;;;;;;9.75;6.75;;;;;;;;;;4955134;29;20039;-79
2022/10/20 00:09:48;;;;;;;12.38;7.28;;;;;;;;;;4961436;28;20047;-79
2022/10/20 00:12:14;;;;;;;10.32;6.50;;;;;;;;;;4955895;28;20052;-79
2022/10/20 00:14:40;;;;;;;15.40;7.05;;;;;;;;;;4954658;29;20180;-79
2022/10/20 00:17:06;;;;;;;11.38;7.03;;;;;;;;;;4967189;28;20108;-79
2022/10/20 00:19:32;;;;;;;10.93;7.25;;;;;;;;;;4966444;28;20047;-79
2022/10/20 00:21:59;;;;;;;13.65;7.50;;;;;;;;;;4952802;29;20102;-79
2022/10/20 00:24:25;;;;;;;13.35;7.25;;;;;;;;;;4954188;29;20490;-79
2022/10/20 00:26:51;;;;;;;13.93;7.07;;;;;;;;;;4952804;29;20051;-79
2022/10/20 00:29:17;;;;;;;15.70;7.57;;;;;;;;;;4963854;28;20061;-79
2022/10/20 00:31:43;;;;;;;12.85;7.32;;;;;;;;;;4971909;28;20043;-79
2022/10/20 00:34:09;;;;;;;12.57;7.78;;;;;;;;;;4973579;28;20054;-79
2022/10/20 00:36:36;;;;;;;10.13;7.85;;;;;;;;;;4973527;28;20046;-79
2022/10/20 00:39:03;;;;;;;11.73;7.72;;;;;;;;;;4973518;28;20043;-79
2022/10/20 00:41:30;;;;;;;11.82;8.10;;;;;;;;;;4957662;28;20047;-79
2022/10/20 00:43:56;;;;;;;15.15;8.13;;;;;;;;;;4952686;29;20051;-79
2022/10/20 00:46:32;;;;;;;13.02;7.72;;;;;;;;;;4953714;29;20051;-79
2022/10/20 00:49:00;;;;;;;14.50;7.72;;;;;;;;;;4953098;29;20130;-79
2022/10/20 00:51:27;;;;;;;13.60;7.60;;;;;;;;;;4953384;28;20051;-79
2022/10/20 00:53:55;;;;;;;14.65;8.13;;;;;;;;;;4953713;29;20053;-79
2022/10/20 00:56:22;;;;;;;13.40;8.13;;;;;;;;;;4953754;29;20047;-79
2022/10/20 00:58:49;;;;;;;15.27;7.57;;;;;;;;;;4952764;28;20074;-79
2022/10/20 01:01:15;;;;;;;13.18;7.88;;;;;;;;;;4953771;28;20085;-79
2022/10/20 01:03:46;;;;;;;11.63;8.13;;;;;;;;;;4953520;28;20443;-79
2022/10/20 01:06:16;;;;;;;13.80;7.53;;;;;;;;;;4954348;28;20533;-79
2022/10/20 01:08:42;;;;;;;13.65;7.82;;;;;;;;;;4953862;28;20054;-79
2022/10/20 01:11:21;;;;;;;13.55;8.20;;;;;;;;;;4953680;28;20047;-79
2022/10/20 01:13:52;;;;;;;14.15;8.07;;;;;;;;;;4953684;28;20486;-79
2022/10/20 01:16:29;;;;;;;14.02;7.85;;;;;;;;;;4956936;28;20050;-79
2022/10/20 01:19:00;;;;;;;11.73;8.10;;;;;;;;;;4972044;28;20046;-79
2022/10/20 01:21:29;;;;;;;11.98;7.80;;;;;;;;;;4972583;28;20055;-79
2022/10/20 01:24:02;;;;;;;12.00;8.45;;;;;;;;;;4973055;28;20473;-79
2022/10/20 01:26:48;;;;;;;15.18;7.72;;;;;;;;;;4972528;28;20133;-79
2022/10/20 01:29:15;;;;;;;10.82;7.60;;;;;;;;;;4954681;28;20426;-79
2022/10/20 01:31:41;;;;;;;15.07;7.93;;;;;;;;;;4953414;28;20053;-79
2022/10/20 01:34:19;;;;;;;11.43;7.82;;;;;;;;;;4953382;28;20039;-79
2022/10/20 01:36:49;;;;;;;13.25;7.57;;;;;;;;;;4952182;29;20039;-79
2022/10/20 01:39:23;;;;;;;15.10;8.88;;;;;;;;;;4953500;28;20044;-79
2022/10/20 01:41:52;;;;;;;14.75;7.82;;;;;;;;;;4953171;29;20054;-79
2022/10/20 01:44:20;;;;;;;12.30;7.47;;;;;;;;;;4953213;29;20043;-79
2022/10/20 01:46:46;;;;;;;13.13;7.85;;;;;;;;;;4953172;29;20044;-79
2022/10/20 01:49:14;;;;;;;13.43;8.13;;;;;;;;;;4953222;28;20104;-79
2022/10/20 01:51:40;;;;;;;12.30;7.60;;;;;;;;;;4953117;28;20501;-79
2022/10/20 01:54:06;;;;;;;12.77;8.40;;;;;;;;;;4953184;28;20044;-79
2022/10/20 01:56:38;;;;;;;13.15;8.57;;;;;;;;;;4952941;28;20043;-79
2022/10/20 01:59:23;;;;;;;11.70;7.40;;;;;;;;;;4953006;28;20043;-79
2022/10/20 02:01:59;;;;;;;9.98;7.50;;;;;;;;;;4952763;28;20047;-79
2022/10/20 02:04:33;;;;;;;14.88;8.25;;;;;;;;;;4967306;28;20051;-79
2022/10/20 02:07:07;;;;;;;11.60;8.38;;;;;;;;;;4956163;28;20053;-79
2022/10/20 02:09:40;;;;;;;11.70;7.60;;;;;;;;;;4952896;29;20048;-79
2022/10/20 02:12:13;;;;;;;13.25;7.43;;;;;;;;;;4952835;29;20051;-79
2022/10/20 02:14:40;;;;;;;13.80;7.65;;;;;;;;;;4952876;29;20055;-79
2022/10/20 02:17:09;;;;;;;13.52;7.90;;;;;;;;;;4953591;29;20039;-78
2022/10/20 02:19:37;;;;;;;13.88;7.50;;;;;;;;;;4952526;28;20055;-79
2022/10/20 02:22:04;;;;;;;13.65;7.72;;;;;;;;;;4952512;28;20051;-79
2022/10/20 02:24:33;;;;;;;12.27;7.85;;;;;;;;;;4952270;28;20382;-79
2022/10/20 02:27:02;;;;;;;11.90;8.02;;;;;;;;;;4955037;28;20152;-78
2022/10/20 02:29:31;;;;;;;11.30;7.68;;;;;;;;;;4970352;28;20066;-79
2022/10/20 02:31:57;;;;;;;15.43;8.10;;;;;;;;;;4970249;28;20051;-79
2022/10/20 02:34:27;;;;;;;12.77;7.95;;;;;;;;;;4952445;28;20046;-79
2022/10/20 02:36:59;;;;;;;13.02;7.82;;;;;;;;;;4952494;28;20082;-79
2022/10/20 02:39:25;;;;;;;15.27;7.75;;;;;;;;;;4951299;29;20048;-79
2022/10/20 02:41:52;;;;;;;11.60;7.45;;;;;;;;;;4956280;28;20421;-79
2022/10/20 02:44:18;;;;;;;12.07;7.28;;;;;;;;;;4971513;28;20578;-79
2022/10/20 02:46:44;;;;;;;14.65;8.57;;;;;;;;;;4971514;28;20578;-79
2022/10/20 02:49:10;;;;;;;13.75;7.68;;;;;;;;;;4960818;28;20055;-79
2022/10/20 02:51:36;;;;;;;11.73;7.88;;;;;;;;;;4951102;28;20402;-79
2022/10/20 02:54:02;;;;;;;11.52;7.45;;;;;;;;;;4952258;29;20046;-79
2022/10/20 02:56:28;;;;;;;15.00;7.70;;;;;;;;;;4952248;29;20054;-79
2022/10/20 02:58:54;;;;;;;14.43;7.93;;;;;;;;;;4952273;28;20039;-79
2022/10/20 03:01:21;;;;;;;12.35;7.63;;;;;;;;;;4951146;29;20051;-79
2022/10/20 03:03:47;;;;;;;13.18;8.02;;;;;;;;;;4962986;28;20050;-79
2022/10/20 03:06:15;;;;;;;13.70;7.07;;;;;;;;;;4971934;28;20119;-79
2022/10/20 03:08:41;;;;;;;14.48;7.53;;;;;;;;;;4971545;28;20039;-79
2022/10/20 03:11:07;;;;;;;12.18;7.85;;;;;;;;;;4971308;28;20093;-79
2022/10/20 03:13:33;;;;;;;12.65;7.45;;;;;;;;;;4971436;28;20047;-79
2022/10/20 03:16:00;;;;;;;10.50;7.13;;;;;;;;;;4969803;28;20062;-79
2022/10/20 03:18:26;;;;;;;14.43;6.93;;;;;;;;;;4955324;28;20074;-79
2022/10/20 03:20:52;;;;;;;13.18;7.38;;;;;;;;;;4955312;28;20040;-79
2022/10/20 03:23:18;;;;;;;12.48;7.82;;;;;;;;;;4955272;28;20040;-79
2022/10/20 03:25:44;;;;;;;11.00;7.03;;;;;;;;;;4955166;28;20487;-78
2022/10/20 03:28:10;;;;;;;10.05;7.40;;;;;;;;;;4955189;28;20051;-79
2022/10/20 03:30:36;;;;;;;12.50;7.90;;;;;;;;;;4955439;29;20088;-79
2022/10/20 03:33:03;;;;;;;12.75;7.78;;;;;;;;;;4955121;29;20039;-79
2022/10/20 03:35:29;;;;;;;12.38;7.82;;;;;;;;;;4967187;28;20160;-79
2022/10/20 03:37:55;;;;;;;11.63;7.15;;;;;;;;;;4974390;28;20043;-79
2022/10/20 03:40:21;;;;;;;13.73;7.93;;;;;;;;;;4974047;28;20111;-79
2022/10/20 03:42:47;;;;;;;13.35;7.70;;;;;;;;;;4974447;28;20078;-79
2022/10/20 03:45:13;;;;;;;11.45;7.57;;;;;;;;;;4956813;28;20126;-79
2022/10/20 03:47:39;;;;;;;15.23;8.02;;;;;;;;;;4974822;28;20047;-79
2022/10/20 03:50:05;;;;;;;14.05;7.65;;;;;;;;;;4958185;28;20101;-79
2022/10/20 03:52:31;;;;;;;14.25;8.18;;;;;;;;;;4954979;28;20039;-79
2022/10/20 03:54:57;;;;;;;13.85;7.82;;;;;;;;;;4955288;29;20052;-79
2022/10/20 03:57:23;;;;;;;12.88;7.90;;;;;;;;;;4955058;28;20058;-79
2022/10/20 03:59:49;;;;;;;11.98;7.88;;;;;;;;;;4955321;28;20043;-79
2022/10/20 04:02:31;;;;;;;12.23;8.10;;;;;;;;;;4955083;29;20398;-79
2022/10/20 04:04:57;;;;;;;14.77;8.13;;;;;;;;;;4954982;28;20074;-79
2022/10/20 04:07:23;;;;;;;13.02;8.30;;;;;;;;;;4955504;28;20055;-79
2022/10/20 04:09:49;;;;;;;12.55;7.90;;;;;;;;;;4955178;28;20455;-79
2022/10/20 04:12:15;;;;;;;15.02;8.48;;;;;;;;;;4955020;28;20051;-79
2022/10/20 04:14:41;;;;;;;14.93;8.18;;;;;;;;;;4955299;28;20043;-79
2022/10/20 04:17:07;;;;;;;12.20;8.23;;;;;;;;;;4954691;28;20043;-79
2022/10/20 04:19:33;;;;;;;12.00;8.95;;;;;;;;;;4954415;28;20100;-79
2022/10/20 04:21:59;;;;;;;12.93;8.55;;;;;;;;;;4954354;28;20055;-79
2022/10/20 04:24:25;;;;;;;15.43;8.68;;;;;;;;;;4954540;28;20043;-79
2022/10/20 04:26:51;;;;;;;12.38;8.18;;;;;;;;;;4953169;28;20055;-79
2022/10/20 04:29:17;;;;;;;14.90;9.07;;;;;;;;;;4955022;28;20100;-79
2022/10/20 04:31:43;;;;;;;15.15;8.60;;;;;;;;;;4954608;29;20563;-79
2022/10/20 04:34:09;;;;;;;14.88;9.88;;;;;;;;;;4954063;29;20407;-79
2022/10/20 04:36:35;;;;;;;13.02;8.60;;;;;;;;;;4954275;29;20043;-79
2022/10/20 04:39:04;;;;;;;14.25;9.02;;;;;;;;;;4954269;29;20047;-79
2022/10/20 04:41:30;;;;;;;13.43;8.20;;;;;;;;;;4954160;29;20491;-79
2022/10/20 04:43:56;;;;;;;14.55;9.90;;;;;;;;;;4954175;29;20054;-79
2022/10/20 04:46:22;;;;;;;15.43;9.38;;;;;;;;;;4966007;28;20039;-79
2022/10/20 04:48:48;;;;;;;17.33;9.43;;;;;;;;;;4969563;28;20047;-79
2022/10/20 04:51:15;;;;;;;15.68;9.43;;;;;;;;;;4953747;29;20461;-78
2022/10/20 04:53:41;;;;;;;14.40;9.20;;;;;;;;;;4953959;29;20146;-78
2022/10/20 04:56:08;;;;;;;14.18;9.30;;;;;;;;;;4953736;29;20133;-78
2022/10/20 04:58:35;;;;;;;13.93;10.10;;;;;;;;;;4953878;29;20050;-78
2022/10/20 05:01:02;;;;;;;17.33;10.32;;;;;;;;;;4953788;28;20047;-79
2022/10/20 05:03:28;;;;;;;17.35;10.20;;;;;;;;;;4953776;28;20044;-79
2022/10/20 05:05:54;;;;;;;15.10;9.35;;;;;;;;;;4953589;28;20043;-79
2022/10/20 05:08:20;;;;;;;13.45;9.50;;;;;;;;;;4953490;28;20201;-78
2022/10/20 05:10:46;;;;;;;15.10;9.98;;;;;;;;;;4953692;28;20471;-79
2022/10/20 05:13:12;;;;;;;14.43;9.48;;;;;;;;;;4954020;28;20088;-79
2022/10/20 05:15:38;;;;;;;14.98;10.10;;;;;;;;;;4953993;28;20090;-81
2022/10/20 05:18:04;;;;;;;16.52;10.05;;;;;;;;;;4953426;28;20043;-79
2022/10/20 05:20:30;;;;;;;15.40;9.55;;;;;;;;;;4958985;28;20151;-78
2022/10/20 05:22:56;;;;;;;13.57;10.05;;;;;;;;;;4968699;28;20465;-78
2022/10/20 05:25:22;;;;;;;16.60;10.65;;;;;;;;;;4953162;29;20057;-79
2022/10/20 05:27:48;;;;;;;16.83;10.45;;;;;;;;;;4953452;29;20091;-78
2022/10/20 05:30:14;;;;;;;16.58;10.98;;;;;;;;;;4953364;29;20048;-79
2022/10/20 05:32:40;;;;;;;17.33;10.18;;;;;;;;;;4953509;29;20176;-79
2022/10/20 05:35:06;;;;;;;15.68;10.85;;;;;;;;;;4953760;28;20047;-79
2022/10/20 05:37:34;;;;;;;17.17;10.25;;;;;;;;;;4952979;28;20398;-79
2022/10/20 05:40:02;;;;;;;18.23;10.43;;;;;;;;;;4953291;28;20055;-77
2022/10/20 05:42:28;;;;;;;16.13;10.30;;;;;;;;;;4953450;28;20465;-78
2022/10/20 05:44:55;;;;;;;16.85;11.43;;;;;;;;;;4953282;28;20082;-78
2022/10/20 05:47:21;;;;;;;17.95;11.15;;;;;;;;;;4953272;28;20113;-77
2022/10/20 05:49:47;;;;;;;16.45;11.07;;;;;;;;;;4953576;28;20043;-78
2022/10/20 05:52:13;;;;;;;16.83;11.07;;;;;;;;;;4952805;28;20453;-79
2022/10/20 05:54:40;;;;;;;19.05;11.40;;;;;;;;;;4952811;28;20558;-79
2022/10/20 05:57:06;;;;;;;19.25;12.00;;;;;;;;;;4952765;28;20418;-79
2022/10/20 05:59:32;;;;;;;19.67;11.48;;;;;;;;;;4953058;28;20047;-79
2022/10/20 06:01:58;;;;;;;16.40;11.65;;;;;;;;;;4952535;28;20456;-79
2022/10/20 06:04:24;;;;;;;17.55;11.73;;;;;;;;;;4953252;28;20039;-79
2022/10/20 06:06:51;;;;;;;17.85;11.73;;;;;;;;;;4952905;29;20054;-79
2022/10/20 06:09:17;;;;;;;16.95;11.90;;;;;;;;;;4952786;29;20054;-78
2022/10/20 06:11:43;;;;;;;16.90;11.70;;;;;;;;;;4951324;29;20550;-79
2022/10/20 06:14:10;;;;;;;21.63;12.55;;;;;;;;;;4951306;29;20051;-78
2022/10/20 06:16:36;;;;;;;20.20;11.10;;;;;;;;;;4951878;28;20097;-79
2022/10/20 06:19:02;;;;;;;19.48;11.38;;;;;;;;;;4954254;28;20404;-81
2022/10/20 06:21:29;;;;;;;19.83;12.00;;;;;;;;;;4956914;28;20055;-81
2022/10/20 06:23:57;;;;;;;17.30;11.80;;;;;;;;;;4961845;29;20047;-81
2022/10/20 06:26:24;;;;;;;16.75;11.20;;;;;;;;;;4959519;29;20055;-81
2022/10/20 06:28:54;;;;;;;16.85;11.70;;;;;;;;;;4953331;29;20058;-81
2022/10/20 06:31:24;;;;;;;20.98;12.13;;;;;;;;;;4952865;29;20058;-81
2022/10/20 06:33:50;;;;;;;18.70;12.68;;;;;;;;;;4953219;29;20051;-81
2022/10/20 06:36:17;;;;;;;21.48;12.40;;;;;;;;;;4952779;28;20126;-81
2022/10/20 06:38:43;;;;;;;20.98;13.63;;;;;;;;;;4951527;28;20054;-81
2022/10/20 06:41:12;;;;;;;22.77;13.32;;;;;;;;;;4952255;29;20056;-81
2022/10/20 06:43:38;;;;;;;20.27;12.85;;;;;;;;;;4951439;28;20039;-81
2022/10/20 06:46:05;;;;;;;18.25;12.77;;;;;;;;;;4951216;29;20058;-80
2022/10/20 06:48:31;;;;;;;18.30;12.55;;;;;;;;;;4953083;28;20051;-80
2022/10/20 06:50:58;;;;;;;20.13;12.15;;;;;;;;;;4957067;28;20066;-80
2022/10/20 06:53:25;;;;;;;20.00;13.50;;;;;;;;;;4958846;28;20054;-80
2022/10/20 06:56:05;;;;;;;18.80;13.10;;;;;;;;;;4958753;28;20085;-80
2022/10/20 06:58:32;;;;;;;18.70;13.57;;;;;;;;;;4957318;29;20470;-80
2022/10/20 07:01:02;;;;;;;23.65;13.32;;;;;;;;;;4958644;28;20047;-80
2022/10/20 07:03:29;;;;;;;19.95;13.23;;;;;;;;;;4958812;28;20130;-80
2022/10/20 07:05:56;;;;;;;20.50;12.60;;;;;;;;;;4958583;28;20048;-80
2022/10/20 07:08:22;;;;;;;19.08;12.82;;;;;;;;;;4959282;28;20051;-78
2022/10/20 07:10:56;;;;;;;18.88;12.55;;;;;;;;;;4959216;29;20490;-78
2022/10/20 07:13:22;;;;;;;18.80;12.23;;;;;;;;;;4973557;28;20108;-80
2022/10/20 07:15:51;;;;;;;20.70;12.73;;;;;;;;;;4968473;28;20047;-81
2022/10/20 07:18:17;;;;;;;19.85;12.63;;;;;;;;;;4959669;28;20533;-82
2022/10/20 07:20:43;;;;;;;20.73;13.00;;;;;;;;;;4958138;28;20485;-83
2022/10/20 07:23:10;;;;;;;20.38;13.60;;;;;;;;;;4958744;28;20059;-80
2022/10/20 07:25:36;;;;;;;18.25;12.25;;;;;;;;;;4972279;28;20067;-81
2022/10/20 07:28:02;;;;;;;21.20;13.18;;;;;;;;;;4976843;28;20050;-80
2022/10/20 07:30:28;;;;;;;20.33;12.98;;;;;;;;;;4977697;28;20046;-81
2022/10/20 07:32:54;;;;;;;18.75;12.63;;;;;;;;;;4972000;28;20039;-79
2022/10/20 07:35:20;;;;;;;19.35;12.70;;;;;;;;;;4957661;28;20043;-80
2022/10/20 07:37:46;;;;;;;20.15;12.95;;;;;;;;;;4957883;28;20472;-81
2022/10/20 07:40:12;;;;;;;16.95;12.52;;;;;;;;;;4973761;28;20533;-80
2022/10/20 07:42:38;;;;;;;19.70;12.52;;;;;;;;;;4966503;28;20050;-80
2022/10/20 07:45:04;;;;;;;17.27;11.35;;;;;;;;;;4958186;29;20130;-81
2022/10/20 07:47:30;;;;;;;16.70;11.93;;;;;;;;;;4958289;29;20047;-81
2022/10/20 07:49:56;;;;;;;17.77;12.52;;;;;;;;;;4959125;29;20105;-79
2022/10/20 07:52:22;;;;;;;19.65;12.95;;;;;;;;;;4957739;29;20066;-79
2022/10/20 07:54:49;;;;;;;20.33;13.00;;;;;;;;;;4963884;28;20074;-79
2022/10/20 07:57:15;;;;;;;18.35;12.85;;;;;;;;;;4977227;28;20051;-80
2022/10/20 07:59:41;;;;;;;19.60;13.00;;;;;;;;;;4966957;28;20093;-78
2022/10/20 08:02:07;;;;;;;20.75;12.75;;;;;;;;;;4962119;28;20039;-79
2022/10/20 08:04:33;;;;;;;15.75;11.52;;;;;;;;;;4953204;29;20047;-79
2022/10/20 08:06:59;;;;;;;19.40;12.68;;;;;;;;;;4969176;28;20086;-79
2022/10/20 08:09:26;;;;;;;19.35;13.00;;;;;;;;;;4965831;28;20441;-78
2022/10/20 08:11:52;;;;;;;18.80;12.95;;;;;;;;;;4967039;28;20047;-79
2022/10/20 08:14:18;;;;;;;18.98;12.35;;;;;;;;;;4965158;28;20090;-78
2022/10/20 08:16:44;;;;;;;17.38;12.32;;;;;;;;;;4972462;28;20073;-78
2022/10/20 08:19:10;;;;;;;17.48;11.32;;;;;;;;;;4964859;28;20043;-79
2022/10/20 08:21:36;;;;;;;18.95;13.02;;;;;;;;;;4957737;28;20054;-79
2022/10/20 08:24:02;;;;;;;21.30;12.88;;;;;;;;;;4970034;28;20329;-80
2022/10/20 08:26:31;;;;;;;17.50;11.27;;;;;;;;;;4959570;28;20069;-83
2022/10/20 08:28:57;;;;;;;18.95;12.30;;;;;;;;;;4961943;28;20051;-78
2022/10/20 08:31:23;;;;;;;19.15;12.38;;;;;;;;;;4964627;28;20896;-79
2022/10/20 08:33:49;;;;;;;19.65;13.18;;;;;;;;;;4954383;28;20055;-79
2022/10/20 08:36:15;;;;;;;21.55;13.15;;;;;;;;;;4954668;28;20558;-79
2022/10/20 08:38:42;;;;;;;17.27;11.10;;;;;;;;;;4954284;28;20184;-79
2022/10/20 08:41:18;;;;;;;16.20;12.40;;;;;;;;;;4955946;28;20058;-79
2022/10/20 08:43:46;;;;;;;16.80;11.68;;;;;;;;;;4954508;29;20058;-79
2022/10/20 08:46:14;;;;;;;19.83;12.25;;;;;;;;;;4954125;28;20086;-77
2022/10/20 08:48:40;;;;;;;16.90;11.93;;;;;;;;;;4954785;28;20051;-79
2022/10/20 08:51:06;;;;;;;18.13;12.20;;;;;;;;;;4954682;28;20043;-79
2022/10/20 08:53:35;;;;;;;15.75;12.27;;;;;;;;;;4974354;28;20039;-81
2022/10/20 08:56:01;;;;;;;19.75;11.43;;;;;;;;;;4967368;28;20154;-78
2022/10/20 08:58:27;;;;;;;18.42;12.18;;;;;;;;;;4954626;28;20051;-78
2022/10/20 09:09:23;;;;;;;16.25;11.02;;;;;;;;;;5137632;27;20536;-77
2022/10/20 09:11:49;;;;;;;17.65;11.60;;;;;;;;;;5090798;28;20082;-77
2022/10/20 09:14:15;;;;;;;16.95;11.35;;;;;;;;;;5090763;28;20101;-78
2022/10/20 09:16:42;;;;;;;17.08;11.70;;;;;;;;;;5090788;28;20044;-77
2022/10/20 09:19:17;;;;;;;67.85;19.65;;;;;;;;;;5091418;28;20087;-79
2022/10/20 09:21:44;;;;;;;16.63;11.43;;;;;;;;;;5091756;28;20372;-77
2022/10/20 09:24:10;;;;;;;17.60;11.77;;;;;;;;;;5091631;28;20105;-78
2022/10/20 09:26:38;;;;;;;16.55;10.43;;;;;;;;;;5089234;28;20036;-78
2022/10/20 09:29:09;;;;;;;16.27;11.77;;;;;;;;;;5090665;28;20048;-78
2022/10/20 09:31:36;;;;;;;29.02;13.00;;;;;;;;;;5091255;28;20040;-78
2022/10/20 09:34:18;;;;;;;40.83;14.93;;;;;;;;;;5090459;28;20040;-78
2022/10/20 09:36:44;;;;;;;15.68;11.15;;;;;;;;;;5091167;28;20048;-77
2022/10/20 09:39:18;;;;;;;16.67;11.57;;;;;;;;;;5090875;28;20050;-78
2022/10/20 09:41:44;;;;;;;15.98;11.30;;;;;;;;;;5090793;28;20040;-76
2022/10/20 09:44:22;;;;;;;17.77;11.07;;;;;;;;;;5090808;28;20061;-76
2022/10/20 09:46:50;;;;;;;16.27;11.43;;;;;;;;;;5090314;28;20075;-77
2022/10/20 09:49:30;;;;;;;15.07;10.50;;;;;;;;;;5090553;28;20495;-76
2022/10/20 09:51:56;;;;;;;13.30;10.38;;;;;;;;;;5070623;28;20089;-76
2022/10/20 09:54:24;;;;;;;13.43;10.38;;;;;;;;;;5069795;28;20041;-76
2022/10/20 09:56:51;;;;;;;16.73;11.50;;;;;;;;;;5083001;28;20047;-76
2022/10/20 09:59:47;;;;;;;15.98;10.73;;;;;;;;;;5089918;28;20044;-78
2022/10/20 10:02:13;;;;;;;14.60;10.30;;;;;;;;;;5056763;28;20080;-77
2022/10/20 10:04:40;;;;;;;24.95;13.07;;;;;;;;;;5069470;28;20569;-76
2022/10/20 10:07:26;;;;;;;14.52;11.23;;;;;;;;;;5069058;28;20090;-76
2022/10/20 10:09:58;;;;;;;14.48;10.43;;;;;;;;;;5072902;28;20059;-76
2022/10/20 10:12:25;;;;;;;13.35;9.88;;;;;;;;;;5088073;28;20059;-76
2022/10/20 10:14:52;;;;;;;13.50;10.45;;;;;;;;;;5089496;28;20044;-76
2022/10/20 10:17:35;;;;;;;12.82;9.30;;;;;;;;;;5089215;28;20486;-76
2022/10/20 10:20:06;;;;;;;14.27;9.38;;;;;;;;;;5080258;28;20101;-77
2022/10/20 10:22:33;;;;;;;11.75;9.93;;;;;;;;;;5076862;28;20123;-82
2022/10/20 10:24:59;;;;;;;30.48;13.25;;;;;;;;;;5077120;28;20080;-76
2022/10/20 10:27:27;;;;;;;12.20;9.65;;;;;;;;;;5075639;28;20049;-77
2022/10/20 10:29:55;;;;;;;12.73;9.57;;;;;;;;;;5076415;28;20040;-78
2022/10/20 10:32:25;;;;;;;15.30;9.02;;;;;;;;;;5058868;28;20486;-76
2022/10/20 10:35:07;;;;;;;10.73;8.70;;;;;;;;;;5075643;28;20048;-76
2022/10/20 10:37:34;;;;;;;13.90;9.55;;;;;;;;;;5075681;28;20131;-76
2022/10/20 10:40:01;;;;;;;12.07;9.10;;;;;;;;;;5075606;28;20036;-77
2022/10/20 10:42:45;;;;;;;14.45;9.18;;;;;;;;;;5075587;28;20086;-76
2022/10/20 10:45:18;;;;;;;14.70;9.65;;;;;;;;;;5075801;28;20087;-77
2022/10/20 10:48:00;;;;;;;12.70;9.43;;;;;;;;;;5064542;28;20055;-76
2022/10/20 10:50:38;;;;;;;12.07;9.20;;;;;;;;;;5075970;28;20098;-76
2022/10/20 10:53:10;;;;;;;12.55;9.38;;;;;;;;;;5075148;28;20051;-77
2022/10/20 10:55:46;;;;;;;12.00;9.00;;;;;;;;;;5075433;28;20044;-76
2022/10/20 10:58:12;;;;;;;;;;;;;;;;;;5075747;28;20041;-76
2022/10/20 11:01:04;;;;;;;12.65;9.15;;;;;;;;;;5075324;28;20353;-77
2022/10/20 11:03:49;;;;;;;12.05;9.50;;;;;;;;;;5046571;28;20049;-77
2022/10/20 11:06:19;;;;;;;11.30;9.40;;;;;;;;;;5070766;28;20051;-77
2022/10/20 11:09:02;;;;;;;10.30;8.80;;;;;;;;;;5073141;28;20087;-77
2022/10/20 11:11:41;;;;;;;10.30;8.27;;;;;;;;;;5074139;28;20080;-77
2022/10/20 11:14:25;;;;;;;12.15;8.40;;;;;;;;;;5075061;28;20076;-77
2022/10/20 11:17:10;;;;;;;11.60;8.48;;;;;;;;;;5074968;28;20126;-77
2022/10/20 11:20:00;;;;;;;12.55;8.57;;;;;;;;;;5075585;28;20040;-77
2022/10/20 11:22:37;;;;;;;12.10;8.32;;;;;;;;;;5074893;28;20040;-76
2022/10/20 11:25:03;;;;;;;11.75;9.27;;;;;;;;;;5074874;28;20049;-77
2022/10/20 11:27:33;;;;;;;12.85;9.45;;;;;;;;;;5074640;28;20047;-77
2022/10/20 11:30:15;;;;;;;12.20;8.75;;;;;;;;;;5074773;28;20062;-76
2022/10/20 11:32:47;;;;;;;11.77;9.00;;;;;;;;;;5074130;28;20045;-77
2022/10/20 11:35:13;;;;;;;12.57;8.95;;;;;;;;;;5074743;28;20040;-77
2022/10/20 11:38:02;;;;;;;11.85;9.05;;;;;;;;;;5074495;28;20036;-77
2022/10/20 11:40:35;;;;;;;10.07;8.98;;;;;;;;;;5066202;28;20060;-76
2022/10/20 11:43:01;;;;;;;12.18;9.05;;;;;;;;;;5054468;28;20056;-77
2022/10/20 11:45:39;;;;;;;13.80;9.40;;;;;;;;;;5054456;28;20128;-76
2022/10/20 11:48:24;;;;;;;12.48;9.05;;;;;;;;;;5054334;28;20142;-77
2022/10/20 11:51:13;;;;;;;11.57;8.40;;;;;;;;;;5054402;28;20041;-77
2022/10/20 11:53:44;;;;;;;12.15;9.02;;;;;;;;;;5017669;28;21243;-76
2022/10/20 11:56:10;;;;;;;10.70;8.75;;;;;;;;;;5044014;28;20054;-76
2022/10/20 11:58:38;;;;;;;10.60;8.23;;;;;;;;;;5023600;28;20058;-77
2022/10/20 12:01:17;;;;;;;9.60;8.27;;;;;;;;;;5011908;28;20557;-77
2022/10/20 12:04:04;;;;;;;11.90;8.85;;;;;;;;;;5011950;28;20046;-77
2022/10/20 12:06:47;;;;;;;11.93;9.70;;;;;;;;;;5029332;28;20165;-77
2022/10/20 12:09:24;;;;;;;12.20;9.23;;;;;;;;;;5031549;28;20049;-77
2022/10/20 12:11:58;;;;;;;12.40;9.52;;;;;;;;;;5032974;28;20191;-77
2022/10/20 12:14:27;;;;;;;10.15;8.75;;;;;;;;;;5030176;28;20105;-77
2022/10/20 12:16:53;;;;;;;16.08;9.82;;;;;;;;;;5030670;28;20564;-77
2022/10/20 12:19:28;;;;;;;13.45;9.93;;;;;;;;;;5022749;28;20069;-76
2022/10/20 12:21:59;;;;;;;11.98;9.10;;;;;;;;;;5025609;28;20185;-76
2022/10/20 12:24:36;;;;;;;10.73;8.80;;;;;;;;;;5022706;28;20112;-76
2022/10/20 12:27:05;;;;;;;11.82;9.27;;;;;;;;;;5036991;28;20045;-76
2022/10/20 12:29:31;;;;;;;12.98;9.35;;;;;;;;;;5029318;28;20097;-76
2022/10/20 12:32:19;;;;;;;15.48;10.07;;;;;;;;;;5072400;28;20088;-76
2022/10/20 12:34:46;;;;;;;11.93;9.38;;;;;;;;;;5069776;28;20045;-76
2022/10/20 12:37:25;;;;;;;13.15;9.02;;;;;;;;;;5072261;28;20047;-76
2022/10/20 12:39:52;;;;;;;13.93;9.90;;;;;;;;;;5068208;28;20128;-76
2022/10/20 12:42:31;;;;;;;11.32;9.23;;;;;;;;;;5056293;28;20471;-76
2022/10/20 12:45:23;;;;;;;11.57;9.63;;;;;;;;;;5068170;28;20132;-76
2022/10/20 12:47:51;;;;;;;12.18;9.57;;;;;;;;;;5056068;28;20048;-77
2022/10/20 12:50:20;;;;;;;13.25;10.68;;;;;;;;;;5053940;28;20052;-78
2022/10/20 12:52:46;;;;;;;14.75;10.82;;;;;;;;;;5062317;28;20048;-76
2022/10/20 12:55:29;;;;;;;12.68;10.38;;;;;;;;;;5072098;28;20040;-77
2022/10/20 12:58:12;;;;;;;15.70;10.57;;;;;;;;;;5071027;28;22020;-77
2022/10/20 13:00:38;;;;;;;15.45;10.90;;;;;;;;;;5073082;28;20037;-77
2022/10/20 13:03:24;;;;;;;14.07;11.07;;;;;;;;;;5073646;28;20091;-76
2022/10/20 13:05:50;;;;;;;18.10;11.05;;;;;;;;;;5082342;28;20083;-77
2022/10/20 13:08:18;;;;;;;15.50;11.90;;;;;;;;;;5059763;28;20444;-76
2022/10/20 13:10:45;;;;;;;16.13;11.80;;;;;;;;;;5075182;28;20499;-76
2022/10/20 13:13:11;;;;;;;17.90;12.02;;;;;;;;;;5074447;28;20049;-76
2022/10/20 13:15:43;;;;;;;15.50;11.38;;;;;;;;;;5073270;28;20040;-77
2022/10/20 13:18:12;;;;;;;13.70;10.80;;;;;;;;;;5073791;28;20049;-80
2022/10/20 13:20:44;;;;;;;18.05;12.85;;;;;;;;;;5073735;28;20044;-77
2022/10/20 13:23:12;;;;;;;16.77;11.93;;;;;;;;;;5074026;28;20055;-77
2022/10/20 13:25:40;;;;;;;15.73;11.23;;;;;;;;;;5068344;28;20157;-77
2022/10/20 13:28:12;;;;;;;17.92;12.55;;;;;;;;;;5061450;28;20102;-78
2022/10/20 13:30:50;;;;;;;17.88;12.15;;;;;;;;;;5076460;28;20079;-74
2022/10/20 13:33:21;;;;;;;16.02;12.68;;;;;;;;;;5073413;28;20044;-75
2022/10/20 13:36:17;;;;;;;18.83;12.13;;;;;;;;;;5071177;28;20044;-76
2022/10/20 13:38:57;;;;;;;19.02;12.85;;;;;;;;;;5053066;28;20154;-76
2022/10/20 13:41:28;;;;;;;19.25;13.10;;;;;;;;;;5064472;28;20041;-76
2022/10/20 13:44:06;;;;;;;18.70;13.13;;;;;;;;;;5066019;28;20045;-76
2022/10/20 13:46:44;;;;;;;18.38;13.23;;;;;;;;;;5067969;28;20037;-75
2022/10/20 13:49:19;;;;;;;17.15;12.63;;;;;;;;;;5060848;28;20040;-75
2022/10/20 13:51:47;;;;;;;19.63;13.63;;;;;;;;;;5073160;28;20040;-76
2022/10/20 13:54:19;;;;;;;20.98;13.48;;;;;;;;;;5072289;28;20072;-75
2022/10/20 13:56:47;;;;;;;18.13;13.30;;;;;;;;;;5076315;28;20052;-75
2022/10/20 13:59:13;;;;;;;17.20;12.10;;;;;;;;;;5072240;28;20122;-76
2022/10/20 14:01:39;;;;;;;21.98;14.27;;;;;;;;;;5076115;28;20048;-75
2022/10/20 14:04:24;;;;;;;21.70;13.80;;;;;;;;;;5076528;28;20048;-76
2022/10/20 14:06:51;;;;;;;21.50;14.18;;;;;;;;;;5069341;28;20052;-75
2022/10/20 14:09:18;;;;;;;20.95;13.30;;;;;;;;;;5061766;28;20109;-75
2022/10/20 14:11:45;;;;;;;19.35;13.50;;;;;;;;;;5065073;28;20033;-75
2022/10/20 14:14:16;;;;;;;19.83;13.23;;;;;;;;;;5064992;28;20040;-76
2022/10/20 14:16:49;;;;;;;21.20;14.57;;;;;;;;;;5063989;28;20529;-75
2022/10/20 14:19:15;;;;;;;22.95;15.15;;;;;;;;;;5063973;28;20048;-76
2022/10/20 14:21:43;;;;;;;24.20;15.57;;;;;;;;;;5062675;28;20045;-76
2022/10/20 14:24:13;;;;;;;23.75;15.23;;;;;;;;;;5063243;28;20036;-75
2022/10/20 14:26:42;;;;;;;21.95;15.45;;;;;;;;;;5070172;28;20048;-76
2022/10/20 14:29:10;;;;;;;23.33;15.35;;;;;;;;;;5065851;28;20098;-76
2022/10/20 14:31:36;;;;;;;21.98;14.52;;;;;;;;;;5062693;28;20076;-76
2022/10/20 14:34:02;;;;;;;23.13;15.40;;;;;;;;;;5065118;28;20123;-76
2022/10/20 14:36:29;;;;;;;25.90;16.15;;;;;;;;;;5065151;28;20476;-76
2022/10/20 14:38:57;;;;;;;20.98;14.98;;;;;;;;;;5072471;28;20040;-76
2022/10/20 14:41:33;;;;;;;23.00;15.85;;;;;;;;;;5068329;28;20443;-75
2022/10/20 14:44:05;;;;;;;24.10;15.40;;;;;;;;;;5071905;28;20045;-75